Time;durP1;ratioP1;P1;durP2;ratioP2;P2;SDS_P1;SDS_P2;PMS_P1;PMS_P2;Temp;Humidity;BMP_temperature;BMP_pressure;BME280_temperature;BME280_humidity;BME280_pressure;Samples;Min_cycle;Max_cycle;Signal;HPM_P1;HPM_P2
2022/09/04 00:01:37;;;;;;;1.77;1.43;;;25.90;91.30;;;;;;5084993;28;20483;-65
2022/09/04 00:04:25;;;;;;;1.53;1.27;;;25.70;91.50;;;;;;5085233;28;20451;-65
2022/09/04 00:07:07;;;;;;;1.30;1.13;;;25.60;91.30;;;;;;5084287;28;20446;-65
2022/09/04 00:09:50;;;;;;;1.10;1.00;;;25.60;91.80;;;;;;5084784;28;20945;-64
2022/09/04 00:12:26;;;;;;;1.17;0.90;;;25.60;91.30;;;;;;5084571;28;20468;-65
2022/09/04 00:15:06;;;;;;;1.33;1.20;;;25.60;91.00;;;;;;5084829;28;20837;-65
2022/09/04 00:17:45;;;;;;;1.20;1.07;;;25.50;91.70;;;;;;5084725;28;20452;-65
2022/09/04 00:20:31;;;;;;;1.40;1.30;;;25.60;91.10;;;;;;5084636;28;20457;-65
2022/09/04 00:23:07;;;;;;;1.37;1.20;;;25.60;91.00;;;;;;5083862;28;20441;-65
2022/09/04 00:25:51;;;;;;;1.47;1.10;;;25.50;90.50;;;;;;5084891;28;20426;-65
2022/09/04 00:28:33;;;;;;;1.90;1.17;;;25.40;91.10;;;;;;5084329;28;20460;-65
2022/09/04 00:31:13;;;;;;;1.20;1.20;;;25.50;91.50;;;;;;5084236;28;20449;-65
2022/09/04 00:33:55;;;;;;;1.30;1.20;;;25.40;91.80;;;;;;5084498;28;20502;-65
2022/09/04 00:36:28;;;;;;;1.70;1.50;;;25.50;92.30;;;;;;5083869;28;20933;-65
2022/09/04 00:39:04;;;;;;;1.97;1.53;;;25.60;92.50;;;;;;5084120;28;20445;-65
2022/09/04 00:41:56;;;;;;;1.70;1.60;;;25.50;93.20;;;;;;5084179;28;20446;-65
2022/09/04 00:44:46;;;;;;;2.30;1.50;;;25.60;92.40;;;;;;5083287;28;20482;-65
2022/09/04 00:47:47;;;;;;;1.23;1.23;;;25.50;91.90;;;;;;5084123;28;20424;-65
2022/09/04 00:50:40;;;;;;;1.73;1.63;;;25.60;92.00;;;;;;5084214;28;20445;-65
2022/09/04 00:53:38;;;;;;;1.30;1.20;;;25.50;92.40;;;;;;5084093;28;20447;-65
2022/09/04 00:56:41;;;;;;;1.43;1.33;;;25.40;92.00;;;;;;5084036;28;20477;-64
2022/09/04 00:59:27;;;;;;;1.20;1.10;;;25.30;92.50;;;;;;5084045;28;20447;-65
2022/09/04 01:02:05;;;;;;;1.60;1.50;;;25.30;92.70;;;;;;5084106;28;20464;-65
2022/09/04 01:04:43;;;;;;;1.77;1.67;;;25.30;92.30;;;;;;5083779;28;20483;-65
2022/09/04 01:07:32;;;;;;;1.50;1.40;;;25.20;91.90;;;;;;5083242;28;20451;-65
2022/09/04 01:10:19;;;;;;;1.27;1.17;;;25.10;92.70;;;;;;5083794;28;20469;-64
2022/09/04 01:12:58;;;;;;;1.60;1.50;;;25.00;93.30;;;;;;5083447;28;20436;-65
2022/09/04 01:15:36;;;;;;;1.57;1.40;;;25.00;93.50;;;;;;5083614;28;20488;-65
2022/09/04 01:18:14;;;;;;;1.73;1.63;;;24.90;93.50;;;;;;5083761;28;20444;-65
2022/09/04 01:21:14;;;;;;;1.70;1.40;;;24.90;93.80;;;;;;5083299;28;20450;-65
2022/09/04 01:24:01;;;;;;;1.53;1.40;;;24.90;93.40;;;;;;5083762;28;20428;-65
2022/09/04 01:26:41;;;;;;;1.47;1.37;;;24.80;93.40;;;;;;5083773;28;20438;-65
2022/09/04 01:29:23;;;;;;;1.70;1.60;;;24.80;93.70;;;;;;5083465;28;20466;-65
2022/09/04 01:32:02;;;;;;;1.73;1.63;;;24.70;93.80;;;;;;5083358;28;20448;-65
2022/09/04 01:34:44;;;;;;;1.50;1.40;;;24.70;93.90;;;;;;5083321;28;20947;-65
2022/09/04 01:37:29;;;;;;;1.63;1.53;;;24.70;94.30;;;;;;5082883;28;20569;-65
2022/09/04 01:40:13;;;;;;;1.93;1.50;;;24.60;94.70;;;;;;5083140;28;20475;-65
2022/09/04 01:42:51;;;;;;;1.93;1.27;;;24.40;94.80;;;;;;5082880;28;20828;-65
2022/09/04 01:45:30;;;;;;;1.50;1.40;;;24.40;95.00;;;;;;5083179;28;20444;-65
2022/09/04 01:48:06;;;;;;;1.40;1.30;;;24.20;95.70;;;;;;5083377;28;20443;-65
2022/09/04 01:50:39;;;;;;;1.70;1.50;;;24.10;96.20;;;;;;5083313;28;20443;-65
2022/09/04 01:53:15;;;;;;;1.90;1.43;;;24.00;96.40;;;;;;5082969;28;20458;-65
2022/09/04 01:55:56;;;;;;;1.57;1.30;;;23.90;95.70;;;;;;5083861;28;21271;-65
2022/09/04 01:58:36;;;;;;;3.10;2.20;;;23.80;96.10;;;;;;5089771;28;20446;-65
2022/09/04 02:01:15;;;;;;;1.33;1.00;;;23.80;95.00;;;;;;5089536;28;20794;-65
2022/09/04 02:03:55;;;;;;;1.60;1.33;;;23.80;95.90;;;;;;5089734;28;20451;-65
2022/09/04 02:06:33;;;;;;;1.10;1.10;;;23.70;96.30;;;;;;5089156;28;20443;-65
2022/09/04 02:09:14;;;;;;;1.57;1.37;;;23.60;97.30;;;;;;5089701;28;20443;-66
2022/09/04 02:11:52;;;;;;;1.37;1.27;;;23.40;98.30;;;;;;5089371;28;20443;-65
2022/09/04 02:14:41;;;;;;;2.47;2.30;;;23.30;98.50;;;;;;5089789;28;20451;-65
2022/09/04 02:17:17;;;;;;;1.47;1.37;;;23.20;98.70;;;;;;5089704;28;20457;-65
2022/09/04 02:19:59;;;;;;;1.40;1.30;;;23.00;99.40;;;;;;5089476;28;20447;-65
2022/09/04 02:22:40;;;;;;;1.43;1.33;;;22.90;99.00;;;;;;5089033;28;20463;-65
2022/09/04 02:25:23;;;;;;;2.30;1.20;;;22.90;99.90;;;;;;5089736;28;20439;-65
2022/09/04 02:28:05;;;;;;;1.33;1.23;;;22.70;99.90;;;;;;5089490;28;20768;-65
2022/09/04 02:30:43;;;;;;;2.63;1.63;;;22.60;99.90;;;;;;5089545;28;20453;-65
2022/09/04 02:33:31;;;;;;;1.70;1.60;;;22.50;99.90;;;;;;5089540;28;20451;-65
2022/09/04 02:36:11;;;;;;;1.63;1.33;;;22.40;99.90;;;;;;5088939;28;20863;-65
2022/09/04 02:38:52;;;;;;;1.63;1.53;;;22.30;99.90;;;;;;5089596;28;20458;-65
2022/09/04 02:41:31;;;;;;;2.20;1.67;;;22.10;99.90;;;;;;5089403;28;20414;-65
2022/09/04 02:44:15;;;;;;;1.30;1.20;;;22.10;99.90;;;;;;5089080;28;20574;-65
2022/09/04 02:46:56;;;;;;;1.83;1.60;;;22.00;99.90;;;;;;5089348;28;20450;-64
2022/09/04 02:49:37;;;;;;;1.20;1.10;;;21.80;99.90;;;;;;5089514;28;20481;-64
2022/09/04 02:52:24;;;;;;;1.60;1.37;;;21.70;99.90;;;;;;5088616;28;20451;-65
2022/09/04 02:55:09;;;;;;;1.50;1.40;;;21.60;99.90;;;;;;5089333;28;20447;-64
2022/09/04 02:57:53;;;;;;;1.70;1.60;;;21.50;99.90;;;;;;5088948;28;20421;-64
2022/09/04 03:00:31;;;;;;;1.70;1.60;;;21.50;99.90;;;;;;5088984;28;20445;-65
2022/09/04 03:03:10;;;;;;;1.67;1.57;;;21.30;99.90;;;;;;5089150;28;20435;-65
2022/09/04 03:05:47;;;;;;;1.90;1.80;;;21.30;99.90;;;;;;5089517;28;20438;-65
2022/09/04 03:08:23;;;;;;;1.87;1.77;;;21.20;99.90;;;;;;5086477;28;20462;-65
2022/09/04 03:10:58;;;;;;;2.17;1.97;;;21.20;99.90;;;;;;5085829;28;20454;-65
2022/09/04 03:13:35;;;;;;;2.17;1.70;;;21.00;99.90;;;;;;5085808;28;20465;-65
2022/09/04 03:16:16;;;;;;;2.00;1.53;;;21.00;99.90;;;;;;5085700;28;20649;-65
2022/09/04 03:19:18;;;;;;;1.37;1.23;;;20.90;99.90;;;;;;5086025;28;20534;-64
2022/09/04 03:21:54;;;;;;;2.07;1.87;;;20.80;99.90;;;;;;5042554;28;20448;-64
2022/09/04 03:24:33;;;;;;;1.80;1.70;;;20.70;99.90;;;;;;5043619;28;20445;-65
2022/09/04 03:27:07;;;;;;;1.70;1.47;;;20.70;99.90;;;;;;5043508;28;20437;-64
2022/09/04 03:29:43;;;;;;;2.13;1.93;;;20.60;99.90;;;;;;5043433;28;20449;-65
2022/09/04 03:32:21;;;;;;;2.20;1.80;;;20.60;99.90;;;;;;5043021;28;20449;-64
2022/09/04 03:35:01;;;;;;;2.40;2.00;;;20.50;99.90;;;;;;5043340;28;20484;-64
2022/09/04 03:37:52;;;;;;;1.63;1.53;;;20.50;99.90;;;;;;5042423;28;20472;-65
2022/09/04 03:40:36;;;;;;;1.70;1.60;;;20.40;99.90;;;;;;5043068;28;20443;-65
2022/09/04 03:43:38;;;;;;;2.00;1.47;;;20.30;99.90;;;;;;5042459;28;20479;-64
2022/09/04 03:46:24;;;;;;;2.53;2.30;;;20.20;99.90;;;;;;5033049;28;20452;-65
2022/09/04 03:49:08;;;;;;;3.60;3.13;;;20.10;99.90;;;;;;5042942;28;20434;-65
2022/09/04 03:51:56;;;;;;;2.63;2.43;;;20.00;99.90;;;;;;5042276;28;20461;-65
2022/09/04 03:54:50;;;;;;;2.77;2.57;;;20.10;99.90;;;;;;5043188;28;20430;-65
2022/09/04 03:57:37;;;;;;;2.33;2.23;;;20.10;99.90;;;;;;5060287;28;20491;-64
2022/09/04 04:00:12;;;;;;;3.67;3.10;;;20.00;99.90;;;;;;5085140;28;20414;-64
2022/09/04 04:02:58;;;;;;;2.90;2.60;;;19.90;99.90;;;;;;5084929;28;20458;-64
2022/09/04 04:05:49;;;;;;;2.70;2.50;;;19.90;99.90;;;;;;5085210;28;20462;-65
2022/09/04 04:08:55;;;;;;;2.80;2.60;;;19.80;99.90;;;;;;5084999;28;20994;-64
2022/09/04 04:11:44;;;;;;;4.40;1.90;;;19.80;99.90;;;;;;5075213;28;20444;-64
2022/09/04 04:14:37;;;;;;;3.37;3.07;;;19.80;99.90;;;;;;5084767;28;20443;-65
2022/09/04 04:17:29;;;;;;;3.33;2.70;;;19.70;99.90;;;;;;5084492;28;20489;-64
2022/09/04 04:20:14;;;;;;;2.40;2.20;;;19.70;99.90;;;;;;5084599;28;20447;-64
2022/09/04 04:23:16;;;;;;;2.43;2.23;;;19.70;99.90;;;;;;5083656;28;20429;-65
2022/09/04 04:25:59;;;;;;;2.30;2.20;;;19.60;99.90;;;;;;5084391;28;20458;-65
2022/09/04 04:28:58;;;;;;;2.87;2.63;;;19.60;99.90;;;;;;5084441;28;20456;-65
2022/09/04 04:32:09;;;;;;;2.40;2.20;;;19.50;99.90;;;;;;5084263;28;20491;-65
2022/09/04 04:34:52;;;;;;;1.90;1.80;;;19.50;99.90;;;;;;5084409;28;20454;-65
2022/09/04 04:37:35;;;;;;;2.57;2.37;;;19.40;99.90;;;;;;5083807;28;20454;-64
2022/09/04 04:40:15;;;;;;;3.03;2.73;;;19.40;99.90;;;;;;5084502;28;20414;-64
2022/09/04 04:42:56;;;;;;;2.67;2.47;;;19.30;99.90;;;;;;5083571;28;20539;-65
2022/09/04 04:45:52;;;;;;;2.47;2.33;;;19.30;99.90;;;;;;5084045;28;20421;-64
2022/09/04 04:49:09;;;;;;;2.47;2.37;;;19.30;99.90;;;;;;5084023;28;20432;-64
2022/09/04 04:51:57;;;;;;;3.07;2.77;;;19.20;99.90;;;;;;5083452;28;20810;-64
2022/09/04 04:54:44;;;;;;;2.43;2.23;;;19.20;99.90;;;;;;5083915;28;20521;-64
2022/09/04 04:57:28;;;;;;;2.60;2.40;;;19.00;99.90;;;;;;5083750;28;20461;-64
2022/09/04 05:00:10;;;;;;;2.40;2.20;;;19.00;99.90;;;;;;5083953;28;20429;-64
2022/09/04 05:02:50;;;;;;;2.80;2.10;;;19.00;99.90;;;;;;5083417;28;20954;-65
2022/09/04 05:05:40;;;;;;;2.17;1.97;;;19.00;99.90;;;;;;5083887;28;20784;-64
2022/09/04 05:08:19;;;;;;;2.73;2.50;;;19.00;99.90;;;;;;5083656;28;20443;-64
2022/09/04 05:10:56;;;;;;;2.70;2.50;;;19.00;99.90;;;;;;5083657;28;21177;-64
2022/09/04 05:13:36;;;;;;;2.57;2.03;;;18.90;99.90;;;;;;5083382;28;20458;-64
2022/09/04 05:16:15;;;;;;;2.67;2.40;;;18.90;99.90;;;;;;5083508;28;20462;-64
2022/09/04 05:18:57;;;;;;;3.07;2.77;;;18.90;99.90;;;;;;5083509;28;20451;-64
2022/09/04 05:21:36;;;;;;;2.20;2.00;;;18.90;99.90;;;;;;5083020;28;20429;-64
2022/09/04 05:24:15;;;;;;;3.30;2.60;;;18.80;99.90;;;;;;5083251;28;20433;-65
2022/09/04 05:26:52;;;;;;;2.90;2.60;;;18.80;99.90;;;;;;5083347;28;20418;-64
2022/09/04 05:29:30;;;;;;;3.80;2.90;;;18.80;99.90;;;;;;5083487;28;20432;-65
2022/09/04 05:32:12;;;;;;;2.23;2.13;;;18.70;99.90;;;;;;5082872;28;20445;-64
2022/09/04 05:35:02;;;;;;;3.63;2.43;;;18.60;99.90;;;;;;5083602;28;20929;-65
2022/09/04 05:37:43;;;;;;;2.80;2.60;;;18.60;99.90;;;;;;5082575;28;20491;-64
2022/09/04 05:40:24;;;;;;;3.90;3.20;;;18.50;99.90;;;;;;5083448;28;20422;-65
2022/09/04 05:43:13;;;;;;;4.70;3.03;;;18.50;99.90;;;;;;5082702;28;20429;-65
2022/09/04 05:45:58;;;;;;;2.70;2.50;;;18.40;99.90;;;;;;5083133;28;20479;-65
2022/09/04 05:48:35;;;;;;;3.73;3.30;;;18.40;99.90;;;;;;5083320;28;20497;-64
2022/09/04 05:51:37;;;;;;;3.30;3.00;;;18.40;99.90;;;;;;5082523;28;20447;-64
2022/09/04 05:54:42;;;;;;;2.77;2.53;;;18.40;99.90;;;;;;5075692;28;20485;-65
2022/09/04 05:57:41;;;;;;;4.70;2.97;;;18.40;99.90;;;;;;5082971;28;20477;-65
2022/09/04 06:00:16;;;;;;;3.67;3.20;;;18.40;99.90;;;;;;5083123;28;20522;-64
2022/09/04 06:03:17;;;;;;;3.63;3.37;;;18.30;99.90;;;;;;5082729;28;20434;-65
2022/09/04 06:06:04;;;;;;;3.87;3.37;;;18.30;99.90;;;;;;5082468;28;20776;-65
2022/09/04 06:09:05;;;;;;;3.50;3.20;;;18.20;99.90;;;;;;5083314;28;20417;-64
2022/09/04 06:11:45;;;;;;;4.00;3.67;;;18.20;99.90;;;;;;5083010;28;20481;-64
2022/09/04 06:14:36;;;;;;;3.50;3.20;;;18.10;99.90;;;;;;5082826;28;20907;-65
2022/09/04 06:17:20;;;;;;;3.27;2.90;;;18.10;99.90;;;;;;5083062;28;20454;-65
2022/09/04 06:20:09;;;;;;;3.70;3.37;;;18.00;99.90;;;;;;5082940;28;20434;-65
2022/09/04 06:23:13;;;;;;;5.17;3.00;;;18.00;99.90;;;;;;5082212;28;20931;-64
2022/09/04 06:26:07;;;;;;;3.77;3.40;;;17.90;99.90;;;;;;5082813;28;20444;-65
2022/09/04 06:29:15;;;;;;;3.00;2.70;;;17.90;99.90;;;;;;5078243;28;20773;-64
2022/09/04 06:32:21;;;;;;;3.10;2.70;;;17.80;99.90;;;;;;5040132;28;21183;-64
2022/09/04 06:35:29;;;;;;;3.53;2.97;;;17.90;99.90;;;;;;5039255;28;20457;-64
2022/09/04 06:38:18;;;;;;;2.90;2.60;;;17.80;99.90;;;;;;5034695;28;20497;-64
2022/09/04 06:40:59;;;;;;;5.23;3.00;;;17.80;99.90;;;;;;5040356;28;20504;-64
2022/09/04 06:43:41;;;;;;;3.40;2.77;;;17.90;99.90;;;;;;5041169;28;20452;-64
2022/09/04 06:46:23;;;;;;;2.50;2.30;;;17.90;99.90;;;;;;5044109;28;20427;-64
2022/09/04 06:49:04;;;;;;;2.60;2.30;;;17.80;99.90;;;;;;5044110;28;20961;-65
2022/09/04 06:51:55;;;;;;;2.70;2.47;;;17.90;99.90;;;;;;5043357;28;20449;-65
2022/09/04 06:54:43;;;;;;;2.47;2.10;;;17.80;99.90;;;;;;5043701;28;20435;-65
2022/09/04 06:57:45;;;;;;;2.80;2.20;;;17.80;99.90;;;;;;5043807;28;20400;-65
2022/09/04 07:00:18;;;;;;;2.67;2.47;;;17.80;99.90;;;;;;5044014;28;20456;-64
2022/09/04 07:03:12;;;;;;;2.47;2.27;;;17.80;99.90;;;;;;5043876;28;20483;-64
2022/09/04 07:05:53;;;;;;;4.73;2.90;;;17.80;99.90;;;;;;5043508;28;20448;-64
2022/09/04 07:08:38;;;;;;;2.60;2.23;;;17.80;99.90;;;;;;5082635;28;20450;-64
2022/09/04 07:11:21;;;;;;;2.13;1.93;;;17.70;99.90;;;;;;5085936;28;20454;-65
2022/09/04 07:14:15;;;;;;;2.07;1.97;;;17.70;99.90;;;;;;5085498;28;20444;-65
2022/09/04 07:16:58;;;;;;;2.00;1.80;;;17.60;99.90;;;;;;5085677;28;20454;-64
2022/09/04 07:20:02;;;;;;;2.80;2.30;;;17.60;99.90;;;;;;5085978;28;20600;-65
2022/09/04 07:23:06;;;;;;;2.10;2.00;;;17.50;99.90;;;;;;5085340;28;20443;-64
2022/09/04 07:25:45;;;;;;;2.40;1.87;;;17.60;99.90;;;;;;5068580;28;20467;-64
2022/09/04 07:28:35;;;;;;;1.93;1.83;;;17.50;99.90;;;;;;5085870;28;20469;-64
2022/09/04 07:31:12;;;;;;;2.27;2.07;;;17.50;99.90;;;;;;5085642;28;20447;-65
2022/09/04 07:33:52;;;;;;;3.00;1.97;;;17.40;99.90;;;;;;5085591;28;20489;-65
2022/09/04 07:36:32;;;;;;;2.70;2.30;;;17.40;99.90;;;;;;5085334;28;20429;-64
2022/09/04 07:39:14;;;;;;;1.77;1.67;;;17.40;99.90;;;;;;5085549;28;20490;-64
2022/09/04 07:41:52;;;;;;;2.63;2.43;;;17.30;99.90;;;;;;5085354;28;20425;-64
2022/09/04 07:44:34;;;;;;;2.10;1.90;;;17.20;99.90;;;;;;5084846;28;20472;-64
2022/09/04 07:47:13;;;;;;;2.50;2.27;;;17.30;99.90;;;;;;5085434;28;20448;-64
2022/09/04 07:49:56;;;;;;;2.17;1.90;;;17.30;99.90;;;;;;5085436;28;20768;-64
2022/09/04 07:52:52;;;;;;;2.03;1.83;;;17.30;99.90;;;;;;5084657;28;20802;-64
2022/09/04 07:55:32;;;;;;;3.63;2.67;;;17.20;99.90;;;;;;5083669;28;20458;-64
2022/09/04 07:58:38;;;;;;;2.50;2.30;;;17.20;99.90;;;;;;5084958;28;20486;-65
2022/09/04 08:01:33;;;;;;;1.90;1.80;;;17.10;99.90;;;;;;5085031;28;20457;-65
2022/09/04 08:04:25;;;;;;;3.30;2.17;;;17.10;99.90;;;;;;5085042;28;20743;-65
2022/09/04 08:07:00;;;;;;;2.50;2.10;;;17.10;99.90;;;;;;5084548;28;20447;-64
2022/09/04 08:09:50;;;;;;;2.83;2.63;;;17.10;99.90;;;;;;5085196;28;20880;-64
2022/09/04 08:12:46;;;;;;;2.77;2.27;;;17.10;99.90;;;;;;5084796;28;20447;-64
2022/09/04 08:15:20;;;;;;;2.57;2.37;;;17.10;99.90;;;;;;5084578;28;20437;-65
2022/09/04 08:18:09;;;;;;;2.53;2.20;;;17.00;99.90;;;;;;5084623;28;20451;-65
2022/09/04 08:20:52;;;;;;;2.70;2.03;;;17.00;99.90;;;;;;5084784;28;20447;-64
2022/09/04 08:23:44;;;;;;;2.00;1.80;;;16.90;99.90;;;;;;5084558;28;20447;-65
2022/09/04 08:26:20;;;;;;;2.40;2.20;;;16.80;99.90;;;;;;5084391;28;20523;-64
2022/09/04 08:29:10;;;;;;;2.33;2.10;;;16.80;99.90;;;;;;5084663;28;20448;-65
2022/09/04 08:31:49;;;;;;;3.00;2.20;;;16.80;99.90;;;;;;5084596;28;20443;-65
2022/09/04 08:34:54;;;;;;;2.30;2.10;;;16.70;99.90;;;;;;5084932;28;20442;-64
2022/09/04 08:37:28;;;;;;;2.10;1.70;;;16.70;99.90;;;;;;5083983;28;20439;-65
2022/09/04 08:40:36;;;;;;;2.63;2.43;;;16.60;99.90;;;;;;5084620;28;20509;-64
2022/09/04 08:43:34;;;;;;;2.47;2.07;;;16.60;99.90;;;;;;5084429;28;20471;-64
2022/09/04 08:46:33;;;;;;;2.57;1.90;;;16.70;99.90;;;;;;5083728;28;20459;-64
2022/09/04 08:49:37;;;;;;;2.23;2.00;;;16.70;99.90;;;;;;5084431;28;20514;-64
2022/09/04 08:52:34;;;;;;;2.53;2.33;;;16.60;99.90;;;;;;5083849;28;20437;-64
2022/09/04 08:55:20;;;;;;;2.50;2.30;;;16.70;99.90;;;;;;5080629;28;20834;-64
2022/09/04 08:58:43;;;;;;;2.37;2.20;;;16.60;99.90;;;;;;5083876;28;20447;-64
2022/09/04 09:01:49;;;;;;;2.33;2.13;;;16.60;99.90;;;;;;5084109;28;20545;-64
2022/09/04 09:05:05;;;;;;;2.13;1.93;;;16.60;99.90;;;;;;5084105;28;20450;-64
2022/09/04 09:08:05;;;;;;;1.90;1.80;;;16.50;99.90;;;;;;5082821;28;20435;-64
2022/09/04 09:10:55;;;;;;;4.30;2.40;;;16.50;99.90;;;;;;5084041;28;20440;-65
2022/09/04 09:13:50;;;;;;;2.37;2.17;;;16.50;99.90;;;;;;5083707;28;20450;-65
2022/09/04 09:16:23;;;;;;;3.60;3.00;;;16.40;99.90;;;;;;5083539;28;20458;-64
2022/09/04 09:19:15;;;;;;;2.67;2.27;;;16.40;99.90;;;;;;5083629;28;20490;-64
2022/09/04 09:21:48;;;;;;;2.27;2.10;;;16.40;99.90;;;;;;5077143;28;20454;-65
2022/09/04 09:25:08;;;;;;;3.47;2.70;;;16.40;99.90;;;;;;5083421;28;20455;-64
2022/09/04 09:28:10;;;;;;;2.57;2.37;;;16.40;99.90;;;;;;5080800;28;20452;-65
2022/09/04 09:31:15;;;;;;;2.23;1.80;;;16.20;99.90;;;;;;5083588;28;20962;-65
2022/09/04 09:34:12;;;;;;;3.10;2.80;;;16.20;99.90;;;;;;5083442;28;20455;-65
2022/09/04 09:37:06;;;;;;;1.80;1.67;;;16.30;99.90;;;;;;5082634;28;20462;-64
2022/09/04 09:40:18;;;;;;;2.90;2.70;;;16.30;99.90;;;;;;5083395;28;20493;-64
2022/09/04 09:43:45;;;;;;;3.03;1.97;;;16.30;99.90;;;;;;5083030;28;20426;-65
2022/09/04 09:46:45;;;;;;;2.60;1.67;;;16.30;99.90;;;;;;5040725;28;20453;-64
2022/09/04 09:50:04;;;;;;;2.10;1.90;;;16.20;99.90;;;;;;5040968;28;20532;-64
2022/09/04 09:53:17;;;;;;;2.07;1.87;;;16.10;99.90;;;;;;5040212;28;20456;-64
2022/09/04 09:56:21;;;;;;;2.80;2.50;;;16.10;99.90;;;;;;5040753;28;20505;-64
2022/09/04 09:59:26;;;;;;;5.47;2.43;;;16.00;99.90;;;;;;5040756;28;20499;-64
2022/09/04 10:02:33;;;;;;;2.43;2.23;;;15.90;99.90;;;;;;5024583;28;20457;-64
2022/09/04 10:05:30;;;;;;;5.70;2.50;;;16.00;99.90;;;;;;5031849;28;20441;-64
2022/09/04 10:08:33;;;;;;;2.20;2.00;;;16.00;99.90;;;;;;5038363;28;20441;-64
2022/09/04 10:11:23;;;;;;;2.20;2.00;;;16.00;99.90;;;;;;5040596;28;20449;-64
2022/09/04 10:14:27;;;;;;;4.07;2.70;;;16.00;99.90;;;;;;5040505;28;20461;-64
2022/09/04 10:17:43;;;;;;;2.93;2.63;;;15.90;99.90;;;;;;5056822;28;20454;-64
2022/09/04 10:20:46;;;;;;;2.40;1.80;;;15.80;99.90;;;;;;5044713;28;20496;-64
2022/09/04 10:24:01;;;;;;;2.43;2.23;;;15.80;99.90;;;;;;5044321;28;20445;-64
2022/09/04 10:27:08;;;;;;;2.10;1.80;;;15.80;99.90;;;;;;5044705;28;20460;-64
2022/09/04 10:30:01;;;;;;;1.90;1.67;;;15.80;99.90;;;;;;5030077;28;20456;-64
2022/09/04 10:33:03;;;;;;;2.97;1.90;;;15.70;99.90;;;;;;5055436;28;20440;-63
2022/09/04 10:35:57;;;;;;;2.40;2.13;;;15.80;99.90;;;;;;5064533;28;20809;-64
2022/09/04 10:40:34;;;;;;;3.20;2.30;;;15.80;99.90;;;;;;5064246;28;20890;-64
2022/09/04 10:41:49;;;;;;;3.10;2.00;;;15.70;99.90;;;;;;5063897;28;20600;-64
2022/09/04 10:44:44;;;;;;;2.70;2.50;;;15.70;99.90;;;;;;5063769;28;20476;-64
2022/09/04 10:47:28;;;;;;;2.63;2.20;;;15.70;99.90;;;;;;5063865;28;20455;-64
2022/09/04 10:50:22;;;;;;;1.77;1.43;;;15.60;99.90;;;;;;5063910;28;20587;-64
2022/09/04 10:53:19;;;;;;;2.00;1.90;;;15.60;99.90;;;;;;5063437;28;20440;-64
2022/09/04 10:56:09;;;;;;;3.23;2.10;;;15.60;99.90;;;;;;5072936;28;20776;-64
2022/09/04 10:59:03;;;;;;;2.10;1.90;;;15.60;99.90;;;;;;5086105;28;20444;-64
2022/09/04 11:02:15;;;;;;;3.60;2.33;;;15.50;99.90;;;;;;5086446;28;20451;-64
2022/09/04 11:05:18;;;;;;;2.77;2.10;;;15.50;99.90;;;;;;5086292;28;21132;-64
2022/09/04 11:08:43;;;;;;;2.00;1.80;;;15.50;99.90;;;;;;5085477;28;20482;-64
2022/09/04 11:11:32;;;;;;;2.73;2.17;;;15.50;99.90;;;;;;5071222;28;20455;-64
2022/09/04 11:14:37;;;;;;;2.50;2.30;;;15.50;99.90;;;;;;5083553;28;20448;-64
2022/09/04 11:17:47;;;;;;;2.93;2.60;;;15.40;99.90;;;;;;5083346;28;20447;-64
2022/09/04 11:20:51;;;;;;;2.20;2.00;;;15.40;99.90;;;;;;5059646;28;20490;-64
2022/09/04 11:24:07;;;;;;;4.20;2.40;;;15.40;99.90;;;;;;5083311;28;20466;-64
2022/09/04 11:27:19;;;;;;;2.80;2.30;;;15.40;99.90;;;;;;5083339;28;20443;-64
2022/09/04 11:30:08;;;;;;;2.57;2.37;;;15.30;99.90;;;;;;5078658;28;20460;-64
2022/09/04 11:33:14;;;;;;;2.13;1.93;;;15.30;99.90;;;;;;5083046;28;20451;-64
2022/09/04 11:36:05;;;;;;;3.00;2.30;;;15.20;99.90;;;;;;5061638;28;20539;-64
2022/09/04 11:39:08;;;;;;;1.93;1.77;;;15.20;99.90;;;;;;5082951;28;20811;-64
2022/09/04 11:42:02;;;;;;;2.20;2.07;;;15.30;99.90;;;;;;5083029;28;20454;-64
2022/09/04 11:45:02;;;;;;;2.50;2.30;;;15.20;99.90;;;;;;5082859;28;20478;-64
2022/09/04 11:48:13;;;;;;;2.30;1.60;;;15.20;99.90;;;;;;5079344;28;20465;-64
2022/09/04 11:51:23;;;;;;;2.40;1.73;;;15.10;99.90;;;;;;5062443;28;20468;-64
2022/09/04 11:54:26;;;;;;;1.90;1.57;;;15.10;99.90;;;;;;5062728;28;20444;-64
2022/09/04 11:57:07;;;;;;;2.93;2.50;;;15.00;99.90;;;;;;5062764;28;20486;-64
2022/09/04 12:00:00;;;;;;;1.73;1.60;;;15.10;99.90;;;;;;5062046;28;20440;-64
2022/09/04 12:03:00;;;;;;;2.00;1.80;;;15.00;99.90;;;;;;5042708;28;20468;-64
2022/09/04 12:05:50;;;;;;;3.33;2.30;;;15.10;99.90;;;;;;5040191;28;20457;-64
2022/09/04 12:08:47;;;;;;;2.60;2.13;;;15.00;99.90;;;;;;5042426;28;20845;-64
2022/09/04 12:11:50;;;;;;;2.10;1.90;;;14.90;99.90;;;;;;5042526;28;20777;-64
2022/09/04 12:15:00;;;;;;;1.73;1.63;;;14.90;99.90;;;;;;5013841;28;20459;-64
2022/09/04 12:18:15;;;;;;;1.80;1.70;;;14.90;99.90;;;;;;5034840;28;20872;-64
2022/09/04 12:21:36;;;;;;;3.63;2.10;;;14.90;99.90;;;;;;4982734;28;20502;-64
2022/09/04 12:24:42;;;;;;;1.60;1.50;;;14.90;99.90;;;;;;4925684;29;20463;-64
2022/09/04 12:27:45;;;;;;;1.97;1.87;;;14.90;99.90;;;;;;4957862;28;20454;-64
2022/09/04 12:30:22;;;;;;;2.20;2.00;;;14.80;99.90;;;;;;4983244;28;20456;-64
2022/09/04 12:33:30;;;;;;;2.80;1.83;;;14.80;99.90;;;;;;4983133;28;20452;-64
2022/09/04 12:36:38;;;;;;;2.93;2.70;;;14.80;99.90;;;;;;4982616;28;20452;-64
2022/09/04 12:39:42;;;;;;;2.30;1.73;;;14.80;99.90;;;;;;4983224;28;20444;-64
2022/09/04 12:42:17;;;;;;;2.23;1.70;;;14.90;99.90;;;;;;4982533;28;20452;-64
2022/09/04 12:44:58;;;;;;;2.30;2.10;;;14.70;99.90;;;;;;4982751;28;20499;-64
2022/09/04 12:47:44;;;;;;;3.13;2.17;;;14.70;99.90;;;;;;4982930;28;20452;-64
2022/09/04 12:50:27;;;;;;;2.37;1.90;;;14.70;99.90;;;;;;4982916;28;20462;-64
2022/09/04 12:53:15;;;;;;;2.40;2.20;;;14.70;99.90;;;;;;4982275;28;20447;-64
2022/09/04 12:55:57;;;;;;;1.90;1.60;;;14.70;99.90;;;;;;4989171;28;21192;-64
2022/09/04 12:58:58;;;;;;;2.10;1.83;;;14.70;99.90;;;;;;5022394;28;20449;-64
2022/09/04 13:01:42;;;;;;;2.43;1.77;;;14.70;99.90;;;;;;5078218;28;20518;-64
2022/09/04 13:04:21;;;;;;;3.33;2.57;;;14.70;99.90;;;;;;5083968;28;20452;-64
2022/09/04 13:07:13;;;;;;;1.80;1.70;;;14.70;99.90;;;;;;5083430;28;20508;-64
2022/09/04 13:09:55;;;;;;;2.00;1.57;;;14.70;99.90;;;;;;5083738;28;20454;-64
2022/09/04 13:12:35;;;;;;;2.00;1.67;;;14.70;99.90;;;;;;5083759;28;20462;-64
2022/09/04 13:15:23;;;;;;;2.50;1.83;;;14.60;99.90;;;;;;5083737;28;20469;-64
2022/09/04 13:18:02;;;;;;;2.80;1.73;;;14.60;99.90;;;;;;5083611;28;20459;-64
2022/09/04 13:20:42;;;;;;;1.73;1.63;;;14.50;99.90;;;;;;5083518;28;20561;-64
2022/09/04 13:23:34;;;;;;;1.30;1.20;;;14.50;99.90;;;;;;5083605;28;20443;-65
2022/09/04 13:26:28;;;;;;;2.70;2.50;;;14.50;99.90;;;;;;5083710;28;20420;-64
2022/09/04 13:29:14;;;;;;;2.00;1.67;;;14.40;99.90;;;;;;5083941;28;20430;-64
2022/09/04 13:32:00;;;;;;;2.57;2.33;;;14.40;99.90;;;;;;5083894;28;20434;-64
2022/09/04 13:34:46;;;;;;;2.03;1.83;;;14.40;99.90;;;;;;5083588;28;20490;-64
2022/09/04 13:37:23;;;;;;;3.77;2.00;;;14.40;99.90;;;;;;5082911;28;20439;-64
2022/09/04 13:40:14;;;;;;;2.20;2.03;;;14.40;99.90;;;;;;5083227;28;20462;-64
2022/09/04 13:43:18;;;;;;;1.80;1.70;;;14.40;99.90;;;;;;5083066;28;20454;-65
2022/09/04 13:45:54;;;;;;;2.23;1.77;;;14.40;99.90;;;;;;5080687;28;20455;-64
2022/09/04 13:48:36;;;;;;;2.00;1.80;;;14.40;99.90;;;;;;5083331;28;20443;-64
2022/09/04 13:51:11;;;;;;;2.10;1.80;;;14.50;99.90;;;;;;5082679;28;20469;-64
2022/09/04 13:53:53;;;;;;;3.13;1.60;;;14.40;99.90;;;;;;5083008;28;20870;-65
2022/09/04 13:56:31;;;;;;;1.93;1.70;;;14.40;99.90;;;;;;5083513;28;20432;-64
2022/09/04 13:59:07;;;;;;;3.20;1.63;;;14.50;99.90;;;;;;5083255;28;20453;-64
2022/09/04 14:01:44;;;;;;;2.70;2.50;;;14.50;99.90;;;;;;5082730;28;20486;-64
2022/09/04 14:04:25;;;;;;;2.70;2.00;;;14.50;99.90;;;;;;5083086;28;20422;-64
2022/09/04 14:07:01;;;;;;;2.33;1.90;;;14.40;99.90;;;;;;5082445;28;20505;-64
2022/09/04 14:09:37;;;;;;;1.60;1.50;;;14.40;99.90;;;;;;5083190;28;20461;-64
2022/09/04 14:12:30;;;;;;;2.27;1.83;;;14.40;99.90;;;;;;5082926;28;20446;-65
2022/09/04 14:15:39;;;;;;;4.97;2.10;;;14.50;99.90;;;;;;5082808;28;20432;-64
2022/09/04 14:18:30;;;;;;;3.23;2.23;;;14.50;99.90;;;;;;5082888;28;20439;-65
2022/09/04 14:21:05;;;;;;;2.40;2.20;;;14.70;99.90;;;;;;5082098;28;20495;-65
2022/09/04 14:23:48;;;;;;;3.20;2.83;;;15.00;99.90;;;;;;5082979;28;20447;-64
2022/09/04 14:26:30;;;;;;;1.90;1.60;;;15.00;99.90;;;;;;5082866;28;20443;-64
2022/09/04 14:29:08;;;;;;;2.70;2.37;;;15.00;99.90;;;;;;5082879;28;20843;-64
2022/09/04 14:31:51;;;;;;;2.90;2.57;;;15.00;99.90;;;;;;5082400;28;20421;-64
2022/09/04 14:34:36;;;;;;;3.00;2.13;;;15.00;99.90;;;;;;5082815;28;20527;-64
2022/09/04 14:37:16;;;;;;;1.93;1.83;;;15.00;99.90;;;;;;5082202;28;20994;-64
2022/09/04 14:39:53;;;;;;;2.83;2.53;;;15.00;99.90;;;;;;5082945;28;20767;-64
2022/09/04 14:42:41;;;;;;;2.70;2.50;;;15.00;99.90;;;;;;5082578;28;20784;-64